ITY614 LIRF-KBOS
Flight info
| Callsign | ITY614 |
|---|---|
| Flight time | N/A |
| Altitude | 36000 |
| Route | SOTOV P66 KPT L608 TEDGO DCT LIRSU DCT BUB L608 DENUT L610 KOPUL Q60 OKSAW DCT FELCA DCT FADZU DCT BANBA DCT LIMRI/M081F360 DCT 53N020W 53N030W 53N040W 52N050W DCT TUDEP/N0460F360 DCT EBONY DCT AJJAY OOSHN5 |
| Aircraft | A339/H-SADE1E2E3GHIJ3J5M1P2RWXY/LB2D1 |
Departure
| Time | 2026-05-06 00:50 |
|---|---|
| Airport | Rome–Fiumicino Leonardo da Vinci International Airport (LIRF) |
Arrival
| Time | N/A |
|---|---|
| Airport | Boston Logan International Airport (KBOS) |
| Time | Latitude | Longitude | Altitude | Speed | Heading |
|---|---|---|---|---|---|
| 2026-05-06 00:36 | 41.79673 | 12.24110 | 32 ft | 0 kts | 160° |
| 2026-05-06 00:43 | 41.79684 | 12.24105 | 32 ft | 2 kts | 160° |
| 2026-05-06 00:43 | 41.79698 | 12.24098 | 32 ft | 2 kts | 160° |
| 2026-05-06 00:43 | 41.79712 | 12.24091 | 32 ft | 2 kts | 170° |
| 2026-05-06 00:43 | 41.79727 | 12.24091 | 32 ft | 2 kts | 188° |
| 2026-05-06 00:44 | 41.79742 | 12.24095 | 32 ft | 2 kts | 203° |
| 2026-05-06 00:44 | 41.79755 | 12.24105 | 32 ft | 2 kts | 218° |
| 2026-05-06 00:44 | 41.79765 | 12.24119 | 32 ft | 2 kts | 234° |
| 2026-05-06 00:44 | 41.79773 | 12.24135 | 32 ft | 1 kts | 248° |
| 2026-05-06 00:45 | 41.79774 | 12.24142 | 32 ft | 0 kts | 250° |
| 2026-05-06 00:47 | 41.79773 | 12.24136 | 32 ft | 2 kts | 250° |
| 2026-05-06 00:47 | 41.79754 | 12.24062 | 32 ft | 13 kts | 251° |
| 2026-05-06 00:47 | 41.79716 | 12.23924 | 32 ft | 16 kts | 247° |
| 2026-05-06 00:48 | 41.79691 | 12.23784 | 32 ft | 15 kts | 292° |
| 2026-05-06 00:48 | 41.79778 | 12.23716 | 32 ft | 15 kts | 341° |
| 2026-05-06 00:48 | 41.79879 | 12.23678 | 32 ft | 15 kts | 342° |
| 2026-05-06 00:48 | 41.79972 | 12.23639 | 32 ft | 11 kts | 342° |
| 2026-05-06 00:49 | 41.80043 | 12.23648 | 32 ft | 10 kts | 41° |
| 2026-05-06 00:49 | 41.80090 | 12.23785 | 32 ft | 39 kts | 70° |
| 2026-05-06 00:49 | 41.80266 | 12.24429 | 32 ft | 106 kts | 70° |
| 2026-05-06 00:49 | 41.80598 | 12.25622 | 32 ft | 162 kts | 70° |
| 2026-05-06 00:50 | 41.81029 | 12.27153 | 285 ft | 188 kts | 72° |
| 2026-05-06 00:50 | 41.81498 | 12.28851 | 793 ft | 202 kts | 72° |
| 2026-05-06 00:50 | 41.82000 | 12.30685 | 1369 ft | 217 kts | 73° |
| 2026-05-06 00:50 | 41.82520 | 12.32615 | 2010 ft | 230 kts | 73° |
| 2026-05-06 00:51 | 41.83073 | 12.34690 | 2705 ft | 241 kts | 73° |
| 2026-05-06 00:51 | 41.83255 | 12.35380 | 2932 ft | 245 kts | 73° |
| 2026-05-06 00:51 | 41.83604 | 12.36714 | 3377 ft | 250 kts | 74° |
| 2026-05-06 00:51 | 41.83896 | 12.37837 | 3756 ft | 255 kts | 73° |
| 2026-05-06 00:52 | 41.84416 | 12.39853 | 4361 ft | 260 kts | 72° |
| 2026-05-06 00:52 | 41.85020 | 12.42211 | 4847 ft | 269 kts | 72° |
| 2026-05-06 00:52 | 41.85624 | 12.44586 | 5351 ft | 277 kts | 72° |
| 2026-05-06 00:52 | 41.86390 | 12.47002 | 5836 ft | 286 kts | 56° |
| 2026-05-06 00:53 | 41.87552 | 12.49196 | 6334 ft | 293 kts | 53° |
| 2026-05-06 00:53 | 41.88830 | 12.51351 | 6864 ft | 299 kts | 50° |
| 2026-05-06 00:53 | 41.90208 | 12.53419 | 7412 ft | 303 kts | 46° |
| 2026-05-06 00:53 | 41.91721 | 12.55394 | 8101 ft | 302 kts | 36° |
| 2026-05-06 00:54 | 41.93619 | 12.56469 | 8777 ft | 297 kts | 3° |
| 2026-05-06 00:54 | 41.95660 | 12.56143 | 9376 ft | 293 kts | 340° |
| 2026-05-06 00:54 | 41.97601 | 12.55285 | 9921 ft | 296 kts | 338° |
| 2026-05-06 00:54 | 41.99565 | 12.54452 | 10398 ft | 303 kts | 340° |
| 2026-05-06 00:55 | 42.01670 | 12.53680 | 10675 ft | 318 kts | 343° |
| 2026-05-06 00:55 | 42.03860 | 12.52983 | 10947 ft | 333 kts | 345° |
| 2026-05-06 00:55 | 42.06194 | 12.52314 | 11266 ft | 345 kts | 346° |
| 2026-05-06 00:55 | 42.08544 | 12.51686 | 11815 ft | 349 kts | 346° |
| 2026-05-06 00:56 | 42.10925 | 12.51072 | 12429 ft | 351 kts | 346° |
| 2026-05-06 00:56 | 42.13357 | 12.50457 | 13025 ft | 354 kts | 346° |
| 2026-05-06 00:56 | 42.15762 | 12.49853 | 13595 ft | 357 kts | 346° |
| 2026-05-06 00:56 | 42.18229 | 12.49237 | 14171 ft | 359 kts | 346° |
| 2026-05-06 00:57 | 42.20668 | 12.48626 | 14702 ft | 363 kts | 346° |
| 2026-05-06 00:57 | 42.23160 | 12.48005 | 15251 ft | 366 kts | 346° |
| 2026-05-06 00:57 | 42.25676 | 12.47378 | 15784 ft | 369 kts | 346° |
| 2026-05-06 00:57 | 42.28207 | 12.46750 | 16307 ft | 372 kts | 346° |
| 2026-05-06 00:58 | 42.30746 | 12.46118 | 16837 ft | 375 kts | 346° |
| 2026-05-06 00:58 | 42.33321 | 12.45476 | 17347 ft | 379 kts | 346° |
| 2026-05-06 00:58 | 42.35947 | 12.44820 | 17872 ft | 382 kts | 346° |
| 2026-05-06 00:58 | 42.38531 | 12.44177 | 18371 ft | 385 kts | 346° |
| 2026-05-06 00:59 | 42.41184 | 12.43517 | 18846 ft | 389 kts | 346° |
| 2026-05-06 00:59 | 42.43837 | 12.42854 | 19323 ft | 393 kts | 345° |
| 2026-05-06 00:59 | 42.46544 | 12.42177 | 19793 ft | 396 kts | 345° |
| 2026-05-06 00:59 | 42.49258 | 12.41499 | 20245 ft | 400 kts | 345° |
| 2026-05-06 01:00 | 42.52026 | 12.40805 | 20704 ft | 403 kts | 345° |
| 2026-05-06 01:00 | 42.54778 | 12.40115 | 21164 ft | 406 kts | 345° |
| 2026-05-06 01:00 | 42.57560 | 12.39416 | 21592 ft | 409 kts | 345° |
| 2026-05-06 01:00 | 42.60349 | 12.38714 | 22026 ft | 412 kts | 345° |
| 2026-05-06 01:01 | 42.63192 | 12.38000 | 22447 ft | 415 kts | 345° |
| 2026-05-06 01:01 | 42.66045 | 12.37280 | 22840 ft | 418 kts | 345° |
| 2026-05-06 01:01 | 42.68915 | 12.36556 | 23223 ft | 422 kts | 345° |
| 2026-05-06 01:01 | 42.71798 | 12.35829 | 23612 ft | 425 kts | 345° |
| 2026-05-06 01:02 | 42.74698 | 12.35095 | 24033 ft | 427 kts | 345° |
| 2026-05-06 01:02 | 42.77645 | 12.34356 | 24446 ft | 429 kts | 345° |
| 2026-05-06 01:02 | 42.80544 | 12.33624 | 24853 ft | 431 kts | 345° |
| 2026-05-06 01:02 | 42.83527 | 12.32871 | 25267 ft | 432 kts | 345° |
| 2026-05-06 01:03 | 42.86470 | 12.32126 | 25627 ft | 435 kts | 344° |
| 2026-05-06 01:03 | 42.89455 | 12.31372 | 25982 ft | 437 kts | 344° |
| 2026-05-06 01:03 | 42.92434 | 12.30616 | 26376 ft | 438 kts | 344° |
| 2026-05-06 01:03 | 42.95439 | 12.29851 | 26710 ft | 440 kts | 344° |
| 2026-05-06 01:04 | 42.98452 | 12.29085 | 27037 ft | 443 kts | 344° |
| 2026-05-06 01:04 | 43.01468 | 12.28319 | 27353 ft | 445 kts | 343° |
| 2026-05-06 01:04 | 43.04536 | 12.27537 | 27703 ft | 447 kts | 343° |
| 2026-05-06 01:04 | 43.07576 | 12.26761 | 28051 ft | 448 kts | 343° |
| 2026-05-06 01:05 | 43.10644 | 12.25982 | 28401 ft | 449 kts | 343° |
| 2026-05-06 01:05 | 43.13726 | 12.25194 | 28705 ft | 450 kts | 343° |
| 2026-05-06 01:05 | 43.16801 | 12.24407 | 28976 ft | 453 kts | 343° |
| 2026-05-06 01:05 | 43.19896 | 12.23611 | 29263 ft | 454 kts | 343° |
| 2026-05-06 01:06 | 43.23105 | 12.22791 | 29606 ft | 455 kts | 343° |
| 2026-05-06 01:06 | 43.26202 | 12.21999 | 29914 ft | 456 kts | 342° |
| 2026-05-06 01:06 | 43.29343 | 12.21190 | 30227 ft | 457 kts | 342° |
| 2026-05-06 01:06 | 43.32459 | 12.20388 | 30515 ft | 458 kts | 342° |
| 2026-05-06 01:07 | 43.35592 | 12.19581 | 30783 ft | 460 kts | 342° |
| 2026-05-06 01:07 | 43.38750 | 12.18764 | 31034 ft | 462 kts | 342° |
| 2026-05-06 01:07 | 43.41884 | 12.17955 | 31294 ft | 463 kts | 342° |
| 2026-05-06 01:07 | 43.45060 | 12.17135 | 31523 ft | 465 kts | 342° |
| 2026-05-06 01:08 | 43.48236 | 12.16314 | 31743 ft | 467 kts | 342° |
| 2026-05-06 01:08 | 43.51448 | 12.15485 | 31974 ft | 469 kts | 342° |
| 2026-05-06 01:08 | 43.54623 | 12.14663 | 32197 ft | 471 kts | 342° |
| 2026-05-06 01:08 | 43.57849 | 12.13826 | 32453 ft | 472 kts | 342° |
| 2026-05-06 01:09 | 43.61079 | 12.12989 | 32730 ft | 472 kts | 342° |
| 2026-05-06 01:09 | 43.64282 | 12.12159 | 33059 ft | 471 kts | 342° |
| 2026-05-06 01:09 | 43.67479 | 12.11328 | 33363 ft | 470 kts | 342° |
| 2026-05-06 01:09 | 43.70682 | 12.10493 | 33630 ft | 470 kts | 342° |
| 2026-05-06 01:10 | 43.73928 | 12.09648 | 33882 ft | 471 kts | 341° |
| 2026-05-06 01:10 | 43.77132 | 12.08813 | 34182 ft | 470 kts | 341° |
| 2026-05-06 01:10 | 43.80324 | 12.07978 | 34427 ft | 470 kts | 341° |
| 2026-05-06 01:10 | 43.83523 | 12.07138 | 34627 ft | 470 kts | 341° |
| 2026-05-06 01:11 | 43.86756 | 12.06288 | 34773 ft | 472 kts | 341° |
| 2026-05-06 01:11 | 43.89966 | 12.05444 | 34903 ft | 473 kts | 342° |
| 2026-05-06 01:11 | 43.93196 | 12.04597 | 35068 ft | 474 kts | 342° |
| 2026-05-06 01:11 | 43.96404 | 12.03757 | 35235 ft | 474 kts | 342° |
| 2026-05-06 01:12 | 43.99637 | 12.02906 | 35417 ft | 474 kts | 342° |
| 2026-05-06 01:12 | 44.02896 | 12.02048 | 35578 ft | 475 kts | 342° |
| 2026-05-06 01:12 | 44.06122 | 12.01196 | 35739 ft | 475 kts | 342° |
| 2026-05-06 01:12 | 44.09360 | 12.00343 | 35902 ft | 476 kts | 342° |
| 2026-05-06 01:13 | 44.12632 | 11.99480 | 35924 ft | 471 kts | 342° |
| 2026-05-06 01:13 | 44.19001 | 11.97803 | 35934 ft | 466 kts | 342° |
| 2026-05-06 01:14 | 44.28530 | 11.95267 | 35930 ft | 467 kts | 342° |
| 2026-05-06 01:14 | 44.34891 | 11.93572 | 35925 ft | 468 kts | 341° |
| 2026-05-06 01:15 | 44.41277 | 11.91865 | 35931 ft | 468 kts | 342° |
| 2026-05-06 01:15 | 44.47627 | 11.90169 | 35929 ft | 467 kts | 342° |
| 2026-05-06 01:16 | 44.54039 | 11.88451 | 35924 ft | 468 kts | 342° |
| 2026-05-06 01:16 | 44.60393 | 11.86744 | 35923 ft | 469 kts | 342° |
| 2026-05-06 01:17 | 44.66788 | 11.85019 | 35925 ft | 469 kts | 342° |
| 2026-05-06 01:17 | 44.73154 | 11.83297 | 35926 ft | 468 kts | 341° |
| 2026-05-06 01:18 | 44.79579 | 11.81557 | 35927 ft | 469 kts | 341° |
| 2026-05-06 01:18 | 44.85983 | 11.79823 | 35920 ft | 469 kts | 341° |
| 2026-05-06 01:19 | 44.92350 | 11.78092 | 35925 ft | 469 kts | 342° |
| 2026-05-06 01:19 | 44.98756 | 11.76346 | 35930 ft | 472 kts | 342° |
| 2026-05-06 01:20 | 45.05215 | 11.74587 | 35925 ft | 471 kts | 341° |
| 2026-05-06 01:20 | 45.11641 | 11.72829 | 35927 ft | 471 kts | 341° |
| 2026-05-06 01:21 | 45.18051 | 11.71069 | 35933 ft | 472 kts | 341° |
| 2026-05-06 01:21 | 45.24506 | 11.69296 | 35935 ft | 472 kts | 342° |
| 2026-05-06 01:22 | 45.29236 | 11.67996 | 35933 ft | 472 kts | 342° |
| 2026-05-06 01:22 | 45.35717 | 11.66210 | 35931 ft | 473 kts | 342° |
| 2026-05-06 01:23 | 45.42191 | 11.64418 | 35932 ft | 473 kts | 342° |
| 2026-05-06 01:23 | 45.48635 | 11.62633 | 35932 ft | 472 kts | 342° |
| 2026-05-06 01:24 | 45.55118 | 11.60832 | 35932 ft | 473 kts | 342° |
| 2026-05-06 01:24 | 45.61330 | 11.59102 | 35932 ft | 472 kts | 342° |